Airfield :
LOGIN :

Register | Disclaimer

   EN    FR    IT 

 










Legend :    VFR   Marginal VFR   IFR   Intensive IFR   Very Intensive IFR
Visi :
Ceiling :
>= 8 km
>= 3000ft
5 to 8 km
1000 to 3000 ft
1500m to 5 km
500 to 1000 ft
800 to 1500m
200 to 500 ft
< 800m
< 200 ft
Symbols :   Thunderstorms  Fog  Heavy snow  Heavy precipitations  Wind > 20 kt
SIGMETs :     Misc.  Thunderstorms  Icing  Turbulence  Mountain Waves  Volcanic Ashes






- Airport Elevation : 526 ft
- IATA code : LTN


EGGW - London Luton

CURRENT METAR :
  • 090620Z AUTO 26010KT 9999 NCD 03/01 Q1000

EXPIRED METARs :
  • 090550Z AUTO 27014KT 9999 NCD 03/01 Q1000
  • 090520Z AUTO 26015KT 9999 BKN034 04/02 Q1000
  • 090450Z AUTO 26013KT 9999 BKN020 BKN035 BKN042 04/02 Q0999
  • 090420Z AUTO 25015KT 9999 SCT021 BKN031 04/02 Q0999
  • 090350Z AUTO 26015KT 9999 BKN033 04/02 Q0999

TAF TAF EGGW
Valid from the 09 at 06:00 until the 10 at 06:00 UTC


090505Z 0906/1006 24012KT 9999 SCT028
PROB30
TEMPO 0906/0909 7000 SHRA BKN012
BECMG 0915/0918 17008KT
BECMG 0917/0920 -RA BKN010
TEMPO 0918/0924 6000 RA BKN006
PROB30
TEMPO 0919/0923 3000 +RA RADZ BKN003
BECMG 0921/0924 30015KT
BECMG 1000/1003 NSW SCT020
TEMPO 1001/1006 31020G30KT
ATIS : +44 1582 395 204



MET'MAP, your aeronautical weather chart ! - Copyright ORBIFLY December 2007 - Disclaimer

ORBIFLY MET'MAP TEAM :

Programming & Development : Alexandra Zaïnal
Concept & original design : Baudouin d'Aumeries
Assistance for programming : Marc-Olivier Méhu
Technical & hardware support : Manuel Goepfert

Contact : metmap@orbifly.com




SOURCES & CREDITS :

   NOAA